sensor_id;sensor_type;location;lat;lon;timestamp;pressure;altitude;pressure_sealevel;temperature;humidity
19005;BME280;9635;52.078;8.648;2023-01-19T00:02:31;98916.44;;;-0.11;70.09
19005;BME280;9635;52.078;8.648;2023-01-19T00:07:33;98905.97;;;-0.26;70.73
19005;BME280;9635;52.078;8.648;2023-01-19T00:12:38;98913.22;;;-0.30;70.25
19005;BME280;9635;52.078;8.648;2023-01-19T00:17:40;98920.47;;;-0.64;71.51
19005;BME280;9635;52.078;8.648;2023-01-19T00:22:43;98910.28;;;-0.25;71.68
19005;BME280;9635;52.078;8.648;2023-01-19T00:27:52;98899.94;;;-0.14;70.10
19005;BME280;9635;52.078;8.648;2023-01-19T00:32:57;98902.56;;;-0.14;71.25
19005;BME280;9635;52.078;8.648;2023-01-19T00:38:01;98911.13;;;-0.25;71.32
19005;BME280;9635;52.078;8.648;2023-01-19T00:43:05;98913.53;;;0.08;70.46
19005;BME280;9635;52.078;8.648;2023-01-19T00:48:08;98927.53;;;-0.20;71.24
19005;BME280;9635;52.078;8.648;2023-01-19T00:53:10;98921.53;;;-0.08;71.85
19005;BME280;9635;52.078;8.648;2023-01-19T00:58:14;98911.94;;;0.06;71.71
19005;BME280;9635;52.078;8.648;2023-01-19T01:03:17;98911.56;;;0.12;71.62
19005;BME280;9635;52.078;8.648;2023-01-19T01:08:20;98907.31;;;0.09;71.69
19005;BME280;9635;52.078;8.648;2023-01-19T01:13:24;98915.38;;;-0.22;72.78
19005;BME280;9635;52.078;8.648;2023-01-19T01:18:28;98921.03;;;-0.14;72.88
19005;BME280;9635;52.078;8.648;2023-01-19T01:23:31;98933.78;;;0.08;72.04
19005;BME280;9635;52.078;8.648;2023-01-19T01:28:35;98925.97;;;0.21;71.00
19005;BME280;9635;52.078;8.648;2023-01-19T01:33:38;98943.06;;;0.15;71.40
19005;BME280;9635;52.078;8.648;2023-01-19T01:38:42;98945.88;;;0.26;70.65
19005;BME280;9635;52.078;8.648;2023-01-19T01:43:48;98948.44;;;0.28;70.81
19005;BME280;9635;52.078;8.648;2023-01-19T01:48:55;98957.41;;;0.25;70.91
19005;BME280;9635;52.078;8.648;2023-01-19T01:54:08;98941.16;;;0.31;70.97
19005;BME280;9635;52.078;8.648;2023-01-19T01:59:18;98931.75;;;0.42;70.42
19005;BME280;9635;52.078;8.648;2023-01-19T02:04:27;98935.78;;;0.61;70.10
19005;BME280;9635;52.078;8.648;2023-01-19T02:09:32;98943.06;;;0.15;71.45
19005;BME280;9635;52.078;8.648;2023-01-19T02:14:55;98939.19;;;0.35;71.35
19005;BME280;9635;52.078;8.648;2023-01-19T02:19:58;98931.03;;;0.67;70.91
19005;BME280;9635;52.078;8.648;2023-01-19T02:25:03;98926.69;;;0.80;70.07
19005;BME280;9635;52.078;8.648;2023-01-19T02:30:07;98923.84;;;0.83;70.28
19005;BME280;9635;52.078;8.648;2023-01-19T02:35:11;98908.69;;;0.58;71.74
19005;BME280;9635;52.078;8.648;2023-01-19T02:40:17;98923.94;;;0.81;71.13
19005;BME280;9635;52.078;8.648;2023-01-19T02:45:21;98914.47;;;0.50;72.12
19005;BME280;9635;52.078;8.648;2023-01-19T02:50:43;98922.47;;;0.49;71.75
19005;BME280;9635;52.078;8.648;2023-01-19T02:55:55;98904.72;;;0.92;71.11
19005;BME280;9635;52.078;8.648;2023-01-19T03:01:05;98907.00;;;0.43;72.37
19005;BME280;9635;52.078;8.648;2023-01-19T03:06:18;98904.19;;;0.46;73.00
19005;BME280;9635;52.078;8.648;2023-01-19T03:11:27;98908.13;;;0.53;72.04
19005;BME280;9635;52.078;8.648;2023-01-19T03:16:36;98897.44;;;0.54;72.56
19005;BME280;9635;52.078;8.648;2023-01-19T03:21:45;98901.50;;;0.60;72.04
19005;BME280;9635;52.078;8.648;2023-01-19T03:26:52;98895.22;;;0.48;73.02
19005;BME280;9635;52.078;8.648;2023-01-19T03:32:00;98922.59;;;0.47;73.21
19005;BME280;9635;52.078;8.648;2023-01-19T03:37:06;98907.16;;;0.68;72.55
19005;BME280;9635;52.078;8.648;2023-01-19T03:42:15;98918.19;;;0.75;72.07
19005;BME280;9635;52.078;8.648;2023-01-19T03:47:19;98925.03;;;0.50;73.13
19005;BME280;9635;52.078;8.648;2023-01-19T03:52:29;98909.34;;;0.61;72.95
19005;BME280;9635;52.078;8.648;2023-01-19T03:57:35;98904.06;;;0.61;73.04
19005;BME280;9635;52.078;8.648;2023-01-19T04:02:38;98905.28;;;0.97;71.48
19005;BME280;9635;52.078;8.648;2023-01-19T04:07:41;98893.56;;;0.74;72.54
19005;BME280;9635;52.078;8.648;2023-01-19T04:12:45;98900.03;;;0.13;74.21
19005;BME280;9635;52.078;8.648;2023-01-19T04:17:48;98888.25;;;0.47;73.25
19005;BME280;9635;52.078;8.648;2023-01-19T04:22:51;98886.53;;;0.60;72.15
19005;BME280;9635;52.078;8.648;2023-01-19T04:27:55;98881.75;;;0.66;72.36
19005;BME280;9635;52.078;8.648;2023-01-19T04:32:59;98884.22;;;0.69;72.26
19005;BME280;9635;52.078;8.648;2023-01-19T04:38:02;98881.19;;;0.33;73.74
19005;BME280;9635;52.078;8.648;2023-01-19T04:43:06;98883.75;;;0.62;73.13
19005;BME280;9635;52.078;8.648;2023-01-19T04:48:09;98880.88;;;0.79;72.33
19005;BME280;9635;52.078;8.648;2023-01-19T04:53:12;98895.44;;;0.72;72.28
19005;BME280;9635;52.078;8.648;2023-01-19T04:58:18;98901.13;;;0.66;71.89
19005;BME280;9635;52.078;8.648;2023-01-19T05:03:20;98896.13;;;0.61;72.55
19005;BME280;9635;52.078;8.648;2023-01-19T05:08:26;98902.69;;;0.83;71.50
19005;BME280;9635;52.078;8.648;2023-01-19T05:13:30;98895.97;;;0.92;70.75
19005;BME280;9635;52.078;8.648;2023-01-19T05:18:34;98900.56;;;1.02;70.79
19005;BME280;9635;52.078;8.648;2023-01-19T05:23:37;98917.88;;;0.79;71.19
19005;BME280;9635;52.078;8.648;2023-01-19T05:28:41;98894.00;;;0.81;71.71
19005;BME280;9635;52.078;8.648;2023-01-19T05:33:44;98886.91;;;1.09;70.21
19005;BME280;9635;52.078;8.648;2023-01-19T05:38:47;98888.09;;;1.04;70.62
19005;BME280;9635;52.078;8.648;2023-01-19T05:43:51;98872.16;;;0.92;70.81
19005;BME280;9635;52.078;8.648;2023-01-19T05:48:53;98876.06;;;1.26;70.28
19005;BME280;9635;52.078;8.648;2023-01-19T05:53:56;98872.50;;;1.27;69.62
19005;BME280;9635;52.078;8.648;2023-01-19T05:59:00;98876.22;;;1.37;69.46
19005;BME280;9635;52.078;8.648;2023-01-19T06:04:04;98881.34;;;1.26;70.06
19005;BME280;9635;52.078;8.648;2023-01-19T06:09:07;98871.91;;;0.82;72.39
19005;BME280;9635;52.078;8.648;2023-01-19T06:14:11;98880.19;;;0.90;72.04
19005;BME280;9635;52.078;8.648;2023-01-19T06:19:14;98887.84;;;0.53;73.93
19005;BME280;9635;52.078;8.648;2023-01-19T06:24:17;98905.75;;;0.63;74.92
19005;BME280;9635;52.078;8.648;2023-01-19T06:29:22;98912.75;;;0.49;76.27
19005;BME280;9635;52.078;8.648;2023-01-19T06:34:25;98894.97;;;0.66;77.04
19005;BME280;9635;52.078;8.648;2023-01-19T06:39:29;98910.88;;;0.51;77.49
19005;BME280;9635;52.078;8.648;2023-01-19T06:44:33;98916.47;;;0.47;79.25
19005;BME280;9635;52.078;8.648;2023-01-19T06:49:36;98914.59;;;0.20;80.65
19005;BME280;9635;52.078;8.648;2023-01-19T06:54:39;98910.53;;;0.00;82.47
19005;BME280;9635;52.078;8.648;2023-01-19T06:59:47;98919.38;;;-0.15;82.79
19005;BME280;9635;52.078;8.648;2023-01-19T07:04:49;98926.88;;;-0.38;85.29
19005;BME280;9635;52.078;8.648;2023-01-19T07:09:52;98960.56;;;0.02;83.76
19005;BME280;9635;52.078;8.648;2023-01-19T07:14:56;98928.97;;;-0.14;84.19
19005;BME280;9635;52.078;8.648;2023-01-19T07:19:59;98940.94;;;-0.23;85.11
19005;BME280;9635;52.078;8.648;2023-01-19T07:25:04;98955.34;;;-0.29;84.94
19005;BME280;9635;52.078;8.648;2023-01-19T07:30:09;98938.63;;;-0.43;86.28
19005;BME280;9635;52.078;8.648;2023-01-19T07:35:12;98966.84;;;-0.30;85.75
19005;BME280;9635;52.078;8.648;2023-01-19T07:40:16;98970.94;;;-0.40;86.30
19005;BME280;9635;52.078;8.648;2023-01-19T07:45:20;98974.34;;;-0.38;87.10
19005;BME280;9635;52.078;8.648;2023-01-19T07:50:23;98978.13;;;-0.58;85.95
19005;BME280;9635;52.078;8.648;2023-01-19T07:55:28;98981.06;;;-0.32;85.62
19005;BME280;9635;52.078;8.648;2023-01-19T08:00:32;98988.41;;;-0.37;87.12
19005;BME280;9635;52.078;8.648;2023-01-19T08:05:35;98996.19;;;-0.36;86.75
19005;BME280;9635;52.078;8.648;2023-01-19T08:10:38;99011.13;;;-0.35;86.75
19005;BME280;9635;52.078;8.648;2023-01-19T08:15:43;99012.53;;;-0.29;87.36
19005;BME280;9635;52.078;8.648;2023-01-19T08:20:46;99024.25;;;-0.49;88.40
19005;BME280;9635;52.078;8.648;2023-01-19T08:25:49;99021.94;;;-0.09;86.41
19005;BME280;9635;52.078;8.648;2023-01-19T08:30:53;99027.78;;;-0.34;87.46
19005;BME280;9635;52.078;8.648;2023-01-19T08:35:56;99033.44;;;-0.40;88.57
19005;BME280;9635;52.078;8.648;2023-01-19T08:40:59;99037.47;;;-0.19;86.91
19005;BME280;9635;52.078;8.648;2023-01-19T08:46:03;99050.13;;;-0.56;87.70
19005;BME280;9635;52.078;8.648;2023-01-19T08:51:07;99061.41;;;-0.22;87.02
19005;BME280;9635;52.078;8.648;2023-01-19T08:56:10;99059.03;;;-0.26;86.98
19005;BME280;9635;52.078;8.648;2023-01-19T09:01:15;99070.22;;;-0.07;86.18
19005;BME280;9635;52.078;8.648;2023-01-19T09:06:20;99073.09;;;-0.12;86.45
19005;BME280;9635;52.078;8.648;2023-01-19T09:11:25;99089.19;;;-0.00;86.73
19005;BME280;9635;52.078;8.648;2023-01-19T09:16:30;99083.69;;;-0.28;87.84
19005;BME280;9635;52.078;8.648;2023-01-19T09:21:33;99098.75;;;-0.14;87.42
19005;BME280;9635;52.078;8.648;2023-01-19T09:26:35;99095.44;;;-0.33;89.28
19005;BME280;9635;52.078;8.648;2023-01-19T09:31:42;99103.91;;;0.04;87.16
19005;BME280;9635;52.078;8.648;2023-01-19T09:36:46;99105.59;;;0.05;87.34
19005;BME280;9635;52.078;8.648;2023-01-19T09:41:55;99114.88;;;0.42;86.27
19005;BME280;9635;52.078;8.648;2023-01-19T09:47:02;99111.97;;;0.16;87.12
19005;BME280;9635;52.078;8.648;2023-01-19T09:52:14;99121.81;;;0.29;86.35
19005;BME280;9635;52.078;8.648;2023-01-19T09:57:17;99134.41;;;0.09;86.60
19005;BME280;9635;52.078;8.648;2023-01-19T10:02:35;99136.63;;;0.01;87.59
19005;BME280;9635;52.078;8.648;2023-01-19T10:07:49;99133.94;;;-0.13;89.44
19005;BME280;9635;52.078;8.648;2023-01-19T10:13:02;99145.63;;;-0.03;89.95
19005;BME280;9635;52.078;8.648;2023-01-19T10:18:19;99154.00;;;0.35;88.96
19005;BME280;9635;52.078;8.648;2023-01-19T10:23:34;99160.75;;;-0.21;87.65
19005;BME280;9635;52.078;8.648;2023-01-19T10:28:38;99171.03;;;-0.48;88.11
19005;BME280;9635;52.078;8.648;2023-01-19T10:33:43;99171.88;;;-0.97;89.64
19005;BME280;9635;52.078;8.648;2023-01-19T10:38:47;99170.59;;;-0.56;88.65
19005;BME280;9635;52.078;8.648;2023-01-19T10:43:58;99174.03;;;-0.38;88.40
19005;BME280;9635;52.078;8.648;2023-01-19T10:49:03;99181.84;;;-0.37;88.72
19005;BME280;9635;52.078;8.648;2023-01-19T10:54:10;99185.28;;;-0.19;88.60
19005;BME280;9635;52.078;8.648;2023-01-19T10:59:30;99197.06;;;-0.58;90.31
19005;BME280;9635;52.078;8.648;2023-01-19T11:04:34;99198.63;;;-0.38;88.78
19005;BME280;9635;52.078;8.648;2023-01-19T11:09:37;99202.03;;;-0.52;88.88
19005;BME280;9635;52.078;8.648;2023-01-19T11:14:40;99197.34;;;-0.46;88.74
19005;BME280;9635;52.078;8.648;2023-01-19T11:19:51;99203.91;;;0.10;87.16
19005;BME280;9635;52.078;8.648;2023-01-19T11:25:00;99204.00;;;-0.23;88.56
19005;BME280;9635;52.078;8.648;2023-01-19T11:30:09;99212.41;;;-0.17;89.80
19005;BME280;9635;52.078;8.648;2023-01-19T11:35:34;99206.94;;;0.18;88.93
19005;BME280;9635;52.078;8.648;2023-01-19T11:40:37;99222.63;;;0.21;88.56
19005;BME280;9635;52.078;8.648;2023-01-19T11:45:41;99224.41;;;0.05;89.78
19005;BME280;9635;52.078;8.648;2023-01-19T11:50:47;99213.53;;;0.41;89.51
19005;BME280;9635;52.078;8.648;2023-01-19T11:55:55;99214.00;;;0.94;88.05
19005;BME280;9635;52.078;8.648;2023-01-19T12:01:01;99221.56;;;0.55;90.01
19005;BME280;9635;52.078;8.648;2023-01-19T12:06:09;99218.19;;;0.68;89.69
19005;BME280;9635;52.078;8.648;2023-01-19T12:11:17;99222.41;;;1.00;88.61
19005;BME280;9635;52.078;8.648;2023-01-19T12:16:22;99223.63;;;1.09;87.82
19005;BME280;9635;52.078;8.648;2023-01-19T12:21:26;99230.66;;;1.10;88.55
19005;BME280;9635;52.078;8.648;2023-01-19T12:26:36;99232.72;;;1.05;87.71
19005;BME280;9635;52.078;8.648;2023-01-19T12:31:40;99247.84;;;0.73;88.10
19005;BME280;9635;52.078;8.648;2023-01-19T12:36:45;99246.47;;;0.96;86.76
19005;BME280;9635;52.078;8.648;2023-01-19T12:42:03;99254.66;;;0.77;86.99
19005;BME280;9635;52.078;8.648;2023-01-19T12:47:19;99255.84;;;0.71;87.11
19005;BME280;9635;52.078;8.648;2023-01-19T12:52:30;99257.03;;;0.96;86.14
19005;BME280;9635;52.078;8.648;2023-01-19T12:57:37;99264.50;;;0.89;85.34
19005;BME280;9635;52.078;8.648;2023-01-19T13:02:43;99261.50;;;0.95;85.58
19005;BME280;9635;52.078;8.648;2023-01-19T13:08:17;99278.84;;;1.30;84.98
19005;BME280;9635;52.078;8.648;2023-01-19T13:13:22;99281.97;;;1.36;84.28
19005;BME280;9635;52.078;8.648;2023-01-19T13:18:27;99285.47;;;1.37;84.60
19005;BME280;9635;52.078;8.648;2023-01-19T13:23:52;99282.94;;;1.35;84.71
19005;BME280;9635;52.078;8.648;2023-01-19T13:28:56;99280.22;;;1.65;83.64
19005;BME280;9635;52.078;8.648;2023-01-19T13:34:01;99291.59;;;2.23;80.91
19005;BME280;9635;52.078;8.648;2023-01-19T13:39:10;99292.88;;;2.03;81.12
19005;BME280;9635;52.078;8.648;2023-01-19T13:44:20;99295.88;;;2.11;80.17
19005;BME280;9635;52.078;8.648;2023-01-19T13:49:28;99306.97;;;1.89;80.84
19005;BME280;9635;52.078;8.648;2023-01-19T13:54:33;99311.34;;;1.32;81.80
19005;BME280;9635;52.078;8.648;2023-01-19T13:59:36;99323.88;;;1.58;83.05
19005;BME280;9635;52.078;8.648;2023-01-19T14:04:39;99334.91;;;1.36;83.59
19005;BME280;9635;52.078;8.648;2023-01-19T14:09:44;99337.75;;;1.62;83.05
19005;BME280;9635;52.078;8.648;2023-01-19T14:14:47;99344.78;;;1.63;83.00
19005;BME280;9635;52.078;8.648;2023-01-19T14:19:51;99351.41;;;1.84;81.94
19005;BME280;9635;52.078;8.648;2023-01-19T14:25:25;99355.88;;;1.98;81.21
19005;BME280;9635;52.078;8.648;2023-01-19T14:30:28;99366.06;;;1.76;79.86
19005;BME280;9635;52.078;8.648;2023-01-19T14:35:33;99368.41;;;1.52;80.22
19005;BME280;9635;52.078;8.648;2023-01-19T14:40:37;99374.81;;;1.62;80.24
19005;BME280;9635;52.078;8.648;2023-01-19T14:45:45;99383.34;;;1.67;79.13
19005;BME280;9635;52.078;8.648;2023-01-19T14:50:49;99387.25;;;1.76;79.14
19005;BME280;9635;52.078;8.648;2023-01-19T14:56:05;99390.25;;;1.69;79.10
19005;BME280;9635;52.078;8.648;2023-01-19T15:01:08;99390.19;;;2.00;78.93
19005;BME280;9635;52.078;8.648;2023-01-19T15:06:12;99405.56;;;1.64;78.78
19005;BME280;9635;52.078;8.648;2023-01-19T15:11:21;99400.38;;;1.33;79.80
19005;BME280;9635;52.078;8.648;2023-01-19T15:16:26;99409.53;;;1.27;80.42
19005;BME280;9635;52.078;8.648;2023-01-19T15:21:30;99427.22;;;1.11;81.08
19005;BME280;9635;52.078;8.648;2023-01-19T15:26:35;99426.28;;;0.96;81.38
19005;BME280;9635;52.078;8.648;2023-01-19T15:31:39;99434.91;;;0.68;82.25
19005;BME280;9635;52.078;8.648;2023-01-19T15:36:42;99432.78;;;0.90;81.94
19005;BME280;9635;52.078;8.648;2023-01-19T15:41:47;99443.25;;;0.60;83.25
19005;BME280;9635;52.078;8.648;2023-01-19T15:46:49;99435.59;;;0.87;81.37
19005;BME280;9635;52.078;8.648;2023-01-19T15:51:55;99448.91;;;0.70;82.27
19005;BME280;9635;52.078;8.648;2023-01-19T15:56:59;99453.81;;;0.28;83.79
19005;BME280;9635;52.078;8.648;2023-01-19T16:02:02;99458.09;;;0.63;82.21
19005;BME280;9635;52.078;8.648;2023-01-19T16:07:06;99457.09;;;0.65;81.78
19005;BME280;9635;52.078;8.648;2023-01-19T16:12:10;99463.38;;;0.63;82.31
19005;BME280;9635;52.078;8.648;2023-01-19T16:17:13;99478.41;;;0.62;82.42
19005;BME280;9635;52.078;8.648;2023-01-19T16:22:16;99478.84;;;0.70;82.24
19005;BME280;9635;52.078;8.648;2023-01-19T16:27:21;99475.75;;;0.62;82.43
19005;BME280;9635;52.078;8.648;2023-01-19T16:32:24;99478.47;;;0.45;82.85
19005;BME280;9635;52.078;8.648;2023-01-19T16:37:27;99490.91;;;0.43;83.07
19005;BME280;9635;52.078;8.648;2023-01-19T16:42:31;99501.78;;;0.36;83.96
19005;BME280;9635;52.078;8.648;2023-01-19T16:47:34;99499.66;;;0.60;82.53
19005;BME280;9635;52.078;8.648;2023-01-19T16:52:37;99503.19;;;0.59;81.61
19005;BME280;9635;52.078;8.648;2023-01-19T16:57:41;99513.88;;;0.58;81.63
19005;BME280;9635;52.078;8.648;2023-01-19T17:02:44;99521.63;;;0.61;81.14
19005;BME280;9635;52.078;8.648;2023-01-19T17:07:46;99528.09;;;0.55;82.15
19005;BME280;9635;52.078;8.648;2023-01-19T17:12:50;99535.44;;;0.33;82.36
19005;BME280;9635;52.078;8.648;2023-01-19T17:17:53;99531.34;;;0.60;81.38
19005;BME280;9635;52.078;8.648;2023-01-19T17:22:56;99541.66;;;0.65;81.16
19005;BME280;9635;52.078;8.648;2023-01-19T17:28:00;99539.06;;;0.48;81.75
19005;BME280;9635;52.078;8.648;2023-01-19T17:33:03;99544.34;;;0.48;82.36
19005;BME280;9635;52.078;8.648;2023-01-19T17:38:06;99543.41;;;0.49;82.46
19005;BME280;9635;52.078;8.648;2023-01-19T17:43:10;99554.19;;;0.61;82.13
19005;BME280;9635;52.078;8.648;2023-01-19T17:48:13;99552.78;;;0.88;80.46
19005;BME280;9635;52.078;8.648;2023-01-19T17:53:17;99560.22;;;0.48;81.47
19005;BME280;9635;52.078;8.648;2023-01-19T17:58:22;99559.16;;;0.68;80.59
19005;BME280;9635;52.078;8.648;2023-01-19T18:03:26;99561.97;;;0.65;80.63
19005;BME280;9635;52.078;8.648;2023-01-19T18:08:29;99573.47;;;0.30;81.46
19005;BME280;9635;52.078;8.648;2023-01-19T18:13:34;99568.25;;;0.29;81.33
19005;BME280;9635;52.078;8.648;2023-01-19T18:18:37;99572.16;;;0.55;81.20
19005;BME280;9635;52.078;8.648;2023-01-19T18:23:40;99574.81;;;0.37;81.56
19005;BME280;9635;52.078;8.648;2023-01-19T18:28:45;99573.06;;;0.21;81.84
19005;BME280;9635;52.078;8.648;2023-01-19T18:33:48;99577.88;;;0.63;80.88
19005;BME280;9635;52.078;8.648;2023-01-19T18:38:51;99594.72;;;0.45;81.69
19005;BME280;9635;52.078;8.648;2023-01-19T18:43:56;99592.28;;;0.75;80.23
19005;BME280;9635;52.078;8.648;2023-01-19T18:49:00;99583.31;;;0.77;80.40
19005;BME280;9635;52.078;8.648;2023-01-19T18:54:03;99591.97;;;0.64;81.05
19005;BME280;9635;52.078;8.648;2023-01-19T18:59:22;99595.72;;;0.59;81.57
19005;BME280;9635;52.078;8.648;2023-01-19T19:04:25;99592.28;;;0.57;81.85
19005;BME280;9635;52.078;8.648;2023-01-19T19:09:28;99602.25;;;0.52;81.46
19005;BME280;9635;52.078;8.648;2023-01-19T19:14:33;99602.41;;;0.49;81.58
19005;BME280;9635;52.078;8.648;2023-01-19T19:19:36;99597.38;;;0.45;81.91
19005;BME280;9635;52.078;8.648;2023-01-19T19:24:38;99610.38;;;0.65;81.02
19005;BME280;9635;52.078;8.648;2023-01-19T19:29:44;99612.94;;;0.33;81.28
19005;BME280;9635;52.078;8.648;2023-01-19T19:34:49;99612.34;;;0.27;81.69
19005;BME280;9635;52.078;8.648;2023-01-19T19:39:53;99620.28;;;0.27;82.04
19005;BME280;9635;52.078;8.648;2023-01-19T19:44:57;99626.81;;;0.37;81.50
19005;BME280;9635;52.078;8.648;2023-01-19T19:50:00;99629.22;;;0.24;81.68
19005;BME280;9635;52.078;8.648;2023-01-19T19:55:04;99632.44;;;0.31;81.34
19005;BME280;9635;52.078;8.648;2023-01-19T20:00:10;99640.41;;;0.29;81.54
19005;BME280;9635;52.078;8.648;2023-01-19T20:05:13;99641.41;;;0.27;80.34
19005;BME280;9635;52.078;8.648;2023-01-19T20:10:16;99662.97;;;0.36;80.52
19005;BME280;9635;52.078;8.648;2023-01-19T20:15:21;99665.09;;;0.11;81.84
19005;BME280;9635;52.078;8.648;2023-01-19T20:20:24;99670.50;;;0.44;80.38
19005;BME280;9635;52.078;8.648;2023-01-19T20:25:27;99672.59;;;0.20;80.83
19005;BME280;9635;52.078;8.648;2023-01-19T20:30:31;99675.13;;;0.22;80.73
19005;BME280;9635;52.078;8.648;2023-01-19T20:35:34;99682.94;;;0.42;79.99
19005;BME280;9635;52.078;8.648;2023-01-19T20:40:37;99686.22;;;0.47;79.70
19005;BME280;9635;52.078;8.648;2023-01-19T20:45:41;99689.81;;;0.27;79.96
19005;BME280;9635;52.078;8.648;2023-01-19T20:50:45;99694.41;;;0.41;79.03
19005;BME280;9635;52.078;8.648;2023-01-19T20:55:48;99695.34;;;0.40;79.26
19005;BME280;9635;52.078;8.648;2023-01-19T21:00:52;99709.56;;;0.20;80.06
19005;BME280;9635;52.078;8.648;2023-01-19T21:05:55;99696.53;;;0.34;79.42
19005;BME280;9635;52.078;8.648;2023-01-19T21:11:00;99713.38;;;0.32;78.85
19005;BME280;9635;52.078;8.648;2023-01-19T21:16:06;99722.88;;;0.36;78.67
19005;BME280;9635;52.078;8.648;2023-01-19T21:21:09;99725.91;;;0.28;78.95
19005;BME280;9635;52.078;8.648;2023-01-19T21:26:30;99732.50;;;0.20;78.39
19005;BME280;9635;52.078;8.648;2023-01-19T21:31:35;99738.06;;;-0.06;78.79
19005;BME280;9635;52.078;8.648;2023-01-19T21:36:39;99741.50;;;0.33;78.66
19005;BME280;9635;52.078;8.648;2023-01-19T21:41:42;99746.94;;;0.66;78.21
19005;BME280;9635;52.078;8.648;2023-01-19T21:46:47;99755.22;;;0.58;78.05
19005;BME280;9635;52.078;8.648;2023-01-19T21:51:49;99763.75;;;0.10;79.13
19005;BME280;9635;52.078;8.648;2023-01-19T21:56:52;99770.06;;;0.25;78.30
19005;BME280;9635;52.078;8.648;2023-01-19T22:01:56;99763.91;;;0.43;78.40
19005;BME280;9635;52.078;8.648;2023-01-19T22:06:59;99789.91;;;0.70;77.95
19005;BME280;9635;52.078;8.648;2023-01-19T22:12:03;99797.22;;;0.28;78.62
19005;BME280;9635;52.078;8.648;2023-01-19T22:17:07;99798.72;;;0.34;79.22
19005;BME280;9635;52.078;8.648;2023-01-19T22:22:10;99795.59;;;0.26;78.54
19005;BME280;9635;52.078;8.648;2023-01-19T22:27:12;99813.69;;;0.52;78.51
19005;BME280;9635;52.078;8.648;2023-01-19T22:32:17;99810.50;;;0.27;78.89
19005;BME280;9635;52.078;8.648;2023-01-19T22:37:19;99813.13;;;0.27;78.56
19005;BME280;9635;52.078;8.648;2023-01-19T22:42:22;99804.06;;;0.32;78.72
19005;BME280;9635;52.078;8.648;2023-01-19T22:47:26;99815.22;;;0.39;78.75
19005;BME280;9635;52.078;8.648;2023-01-19T22:52:29;99813.63;;;0.16;79.44
19005;BME280;9635;52.078;8.648;2023-01-19T22:57:32;99822.13;;;-0.15;79.98
19005;BME280;9635;52.078;8.648;2023-01-19T23:02:38;99815.13;;;0.22;79.24
19005;BME280;9635;52.078;8.648;2023-01-19T23:07:41;99814.13;;;0.05;79.89
19005;BME280;9635;52.078;8.648;2023-01-19T23:12:43;99809.78;;;-0.15;80.33
19005;BME280;9635;52.078;8.648;2023-01-19T23:17:50;99813.56;;;-0.20;81.14
19005;BME280;9635;52.078;8.648;2023-01-19T23:22:54;99825.59;;;-0.34;80.99
19005;BME280;9635;52.078;8.648;2023-01-19T23:27:56;99830.19;;;-0.18;80.81
19005;BME280;9635;52.078;8.648;2023-01-19T23:33:00;99835.34;;;0.04;79.81
19005;BME280;9635;52.078;8.648;2023-01-19T23:38:03;99830.56;;;0.12;79.25
19005;BME280;9635;52.078;8.648;2023-01-19T23:43:06;99842.94;;;0.11;79.13
19005;BME280;9635;52.078;8.648;2023-01-19T23:48:10;99837.31;;;-0.20;79.77
19005;BME280;9635;52.078;8.648;2023-01-19T23:53:13;99841.03;;;-0.06;79.85
19005;BME280;9635;52.078;8.648;2023-01-19T23:58:16;99846.41;;;-0.07;80.18
